Estación de Punta Cortes

Ultimos registro cada 15 minutos 47
Estación Fecha / Hora Temperatura Humedad Lluvia Velocidad Dirección Radiación Presion
47 Punta Cortes 21-08-2026 11:30 18,6 66 0 2,2 163 691 1024
46 Punta Cortes 21-08-2026 11:15 18,3 66 0 1,3 145 666 1024,5
45 Punta Cortes 21-08-2026 11:00 17,7 65 0 1,3 206 640 1024,9
44 Punta Cortes 21-08-2026 10:45 16,3 71 0 0,9 110 612 1025,3
43 Punta Cortes 21-08-2026 10:30 15,4 76 0 0,9 211 578 1025,6
42 Punta Cortes 21-08-2026 10:15 14,3 78 0 0 194 547 1025,9
41 Punta Cortes 21-08-2026 10:00 12,8 85 0 0,4 126 504 1026,1
40 Punta Cortes 21-08-2026 09:45 10,8 90 0 0 282 464 1026,4
39 Punta Cortes 21-08-2026 09:30 9,3 94 0 0,4 344 422 1026,4
38 Punta Cortes 21-08-2026 09:15 7,6 95 0 0 344 380 1026,4
37 Punta Cortes 21-08-2026 09:00 6,4 96 0 0 344 315 1026,3
36 Punta Cortes 21-08-2026 08:45 5,4 96 0 0,4 23 255 1026,3
35 Punta Cortes 21-08-2026 08:30 4,2 96 0 0 39 218 1026,3
34 Punta Cortes 21-08-2026 08:15 3,3 95 0 1,3 13 28 1026,2
33 Punta Cortes 21-08-2026 08:00 2,8 95 0 0,9 5 26 1026,5
32 Punta Cortes 21-08-2026 07:45 2,1 94 0 0 331 25 1026,7
31 Punta Cortes 21-08-2026 07:30 2,1 95 0 0 15 12 1026,8
30 Punta Cortes 21-08-2026 07:15 1,8 94 0 0 24 5 1026,6
29 Punta Cortes 21-08-2026 07:00 1,9 94 0 0 19 0 1026,6
28 Punta Cortes 21-08-2026 06:45 2,1 94 0 0 15 0 1026,7
27 Punta Cortes 21-08-2026 06:30 2,4 94 0 0 15 0 1026,7
26 Punta Cortes 21-08-2026 06:15 2,6 94 0 0 15 0 1026,5
25 Punta Cortes 21-08-2026 06:00 2,7 94 0 0 57 0 1026,6
24 Punta Cortes 21-08-2026 05:45 2,7 93 0 0 38 0 1026,3
23 Punta Cortes 21-08-2026 05:30 3,3 94 0 0 6 0 1026,5
22 Punta Cortes 21-08-2026 05:15 3,4 94 0 0,4 14 0 1026,5
21 Punta Cortes 21-08-2026 05:00 3,2 93 0 0 251 0 1026,5
20 Punta Cortes 21-08-2026 04:45 3,3 93 0 0 59 0 1026,7
19 Punta Cortes 21-08-2026 04:30 3,7 93 0 0 59 0 1026,7
18 Punta Cortes 21-08-2026 04:15 3,8 92 0 0,4 98 0 1026,7
17 Punta Cortes 21-08-2026 04:00 4,1 93 0 0 63 0 1026,8
16 Punta Cortes 21-08-2026 03:45 4,1 93 0 0 73 0 1026,6
15 Punta Cortes 21-08-2026 03:30 3,9 91 0 0 73 0 1026,5
14 Punta Cortes 21-08-2026 03:15 4,3 91 0 0 72 0 1026,4
13 Punta Cortes 21-08-2026 03:00 4,8 91 0 0 75 0 1026,5
12 Punta Cortes 21-08-2026 02:45 5,1 91 0 0,9 57 0 1026,7
11 Punta Cortes 21-08-2026 02:30 5,5 91 0 0,4 292 0 1027
10 Punta Cortes 21-08-2026 02:15 5,6 88 0 0 304 0 1027,2
9 Punta Cortes 21-08-2026 02:00 6,1 89 0 0 337 0 1027,1
8 Punta Cortes 21-08-2026 01:45 6,3 88 0 0,4 315 0 1027,1
7 Punta Cortes 21-08-2026 01:30 6,8 86 0 0 267 0 1027,1
6 Punta Cortes 21-08-2026 01:15 7,4 85 0 0 267 0 1027,2
5 Punta Cortes 21-08-2026 01:00 7,9 85 0 0,4 344 0 1027,3
4 Punta Cortes 21-08-2026 00:45 8,2 83 0 1,8 346 0 1027,3
3 Punta Cortes 21-08-2026 00:30 8,8 80 0 0,4 135 0 1027,5
2 Punta Cortes 21-08-2026 00:15 10,1 78 0 0,9 353 0 1027,6
1 Punta Cortes 21-08-2026 00:00 10,6 87 0 1,3 219 0 1027,2